sensor_id;sensor_type;location;lat;lon;timestamp;P1;durP1;ratioP1;P2;durP2;ratioP2
1446;SDS011;717;51.522;7.266;2023-02-15T00:00:11;15.77;;;10.97;;
1446;SDS011;717;51.522;7.266;2023-02-15T00:02:40;16.45;;;10.25;;
1446;SDS011;717;51.522;7.266;2023-02-15T00:05:08;17.60;;;11.20;;
1446;SDS011;717;51.522;7.266;2023-02-15T00:07:37;16.52;;;11.07;;
1446;SDS011;717;51.522;7.266;2023-02-15T00:10:06;15.18;;;10.85;;
1446;SDS011;717;51.522;7.266;2023-02-15T00:12:39;15.53;;;10.40;;
1446;SDS011;717;51.522;7.266;2023-02-15T00:15:08;16.58;;;11.13;;
1446;SDS011;717;51.522;7.266;2023-02-15T00:17:38;16.73;;;11.32;;
1446;SDS011;717;51.522;7.266;2023-02-15T00:20:07;16.52;;;10.63;;
1446;SDS011;717;51.522;7.266;2023-02-15T00:22:36;15.07;;;10.57;;
1446;SDS011;717;51.522;7.266;2023-02-15T00:25:04;14.77;;;10.38;;
1446;SDS011;717;51.522;7.266;2023-02-15T00:27:33;16.15;;;11.15;;
1446;SDS011;717;51.522;7.266;2023-02-15T00:30:05;15.07;;;11.10;;
1446;SDS011;717;51.522;7.266;2023-02-15T00:32:34;13.02;;;9.68;;
1446;SDS011;717;51.522;7.266;2023-02-15T00:35:03;16.15;;;10.48;;
1446;SDS011;717;51.522;7.266;2023-02-15T00:37:32;14.75;;;10.25;;
1446;SDS011;717;51.522;7.266;2023-02-15T00:40:01;16.98;;;11.27;;
1446;SDS011;717;51.522;7.266;2023-02-15T00:42:30;16.02;;;11.15;;
1446;SDS011;717;51.522;7.266;2023-02-15T00:44:59;18.63;;;11.00;;
1446;SDS011;717;51.522;7.266;2023-02-15T00:47:30;15.00;;;10.73;;
1446;SDS011;717;51.522;7.266;2023-02-15T00:49:58;14.88;;;11.45;;
1446;SDS011;717;51.522;7.266;2023-02-15T00:52:28;15.77;;;10.23;;
1446;SDS011;717;51.522;7.266;2023-02-15T00:54:56;16.60;;;10.98;;
1446;SDS011;717;51.522;7.266;2023-02-15T00:57:25;17.25;;;10.75;;
1446;SDS011;717;51.522;7.266;2023-02-15T00:59:54;17.10;;;11.25;;
1446;SDS011;717;51.522;7.266;2023-02-15T01:02:22;17.75;;;11.27;;
1446;SDS011;717;51.522;7.266;2023-02-15T01:04:53;16.50;;;11.05;;
1446;SDS011;717;51.522;7.266;2023-02-15T01:07:22;16.58;;;11.05;;
1446;SDS011;717;51.522;7.266;2023-02-15T01:09:50;16.63;;;11.20;;
1446;SDS011;717;51.522;7.266;2023-02-15T01:12:19;17.77;;;12.13;;
1446;SDS011;717;51.522;7.266;2023-02-15T01:14:47;16.07;;;11.50;;
1446;SDS011;717;51.522;7.266;2023-02-15T01:17:16;18.63;;;11.77;;
1446;SDS011;717;51.522;7.266;2023-02-15T01:19:45;18.13;;;12.40;;
1446;SDS011;717;51.522;7.266;2023-02-15T01:22:16;18.27;;;11.82;;
1446;SDS011;717;51.522;7.266;2023-02-15T01:24:45;17.55;;;11.77;;
1446;SDS011;717;51.522;7.266;2023-02-15T01:27:16;18.07;;;11.30;;
1446;SDS011;717;51.522;7.266;2023-02-15T01:29:45;16.37;;;11.27;;
1446;SDS011;717;51.522;7.266;2023-02-15T01:32:14;17.03;;;11.73;;
1446;SDS011;717;51.522;7.266;2023-02-15T01:34:42;16.43;;;11.47;;
1446;SDS011;717;51.522;7.266;2023-02-15T01:37:11;15.63;;;10.83;;
1446;SDS011;717;51.522;7.266;2023-02-15T01:39:42;15.67;;;10.87;;
1446;SDS011;717;51.522;7.266;2023-02-15T01:42:11;18.55;;;10.93;;
1446;SDS011;717;51.522;7.266;2023-02-15T01:44:46;16.08;;;11.00;;
1446;SDS011;717;51.522;7.266;2023-02-15T01:47:22;16.63;;;11.63;;
1446;SDS011;717;51.522;7.266;2023-02-15T01:49:54;16.97;;;11.20;;
1446;SDS011;717;51.522;7.266;2023-02-15T01:52:30;18.57;;;11.37;;
1446;SDS011;717;51.522;7.266;2023-02-15T01:55:01;14.67;;;10.70;;
1446;SDS011;717;51.522;7.266;2023-02-15T01:57:30;15.35;;;11.00;;
1446;SDS011;717;51.522;7.266;2023-02-15T01:59:59;15.97;;;10.60;;
1446;SDS011;717;51.522;7.266;2023-02-15T02:02:31;15.97;;;11.10;;
1446;SDS011;717;51.522;7.266;2023-02-15T02:05:00;17.00;;;11.77;;
1446;SDS011;717;51.522;7.266;2023-02-15T02:07:34;18.73;;;11.37;;
1446;SDS011;717;51.522;7.266;2023-02-15T02:10:09;16.17;;;11.03;;
1446;SDS011;717;51.522;7.266;2023-02-15T02:12:40;15.17;;;11.43;;
1446;SDS011;717;51.522;7.266;2023-02-15T02:15:10;18.27;;;11.30;;
1446;SDS011;717;51.522;7.266;2023-02-15T02:17:42;17.53;;;11.37;;
1446;SDS011;717;51.522;7.266;2023-02-15T02:20:26;18.73;;;12.37;;
1446;SDS011;717;51.522;7.266;2023-02-15T02:23:08;17.80;;;11.53;;
1446;SDS011;717;51.522;7.266;2023-02-15T02:25:59;16.67;;;11.33;;
1446;SDS011;717;51.522;7.266;2023-02-15T02:29:09;15.70;;;10.47;;
1446;SDS011;717;51.522;7.266;2023-02-15T02:32:11;16.27;;;10.23;;
1446;SDS011;717;51.522;7.266;2023-02-15T02:34:59;18.47;;;10.47;;
1446;SDS011;717;51.522;7.266;2023-02-15T02:37:37;15.83;;;11.30;;
1446;SDS011;717;51.522;7.266;2023-02-15T02:40:15;17.07;;;10.70;;
1446;SDS011;717;51.522;7.266;2023-02-15T02:42:54;18.83;;;12.37;;
1446;SDS011;717;51.522;7.266;2023-02-15T02:45:28;17.17;;;12.50;;
1446;SDS011;717;51.522;7.266;2023-02-15T02:48:04;18.30;;;12.33;;
1446;SDS011;717;51.522;7.266;2023-02-15T02:50:40;18.17;;;12.57;;
1446;SDS011;717;51.522;7.266;2023-02-15T02:53:09;19.10;;;13.20;;
1446;SDS011;717;51.522;7.266;2023-02-15T02:55:39;19.40;;;13.00;;
1446;SDS011;717;51.522;7.266;2023-02-15T02:58:14;20.43;;;12.47;;
1446;SDS011;717;51.522;7.266;2023-02-15T03:00:48;17.27;;;12.47;;
1446;SDS011;717;51.522;7.266;2023-02-15T03:03:21;20.37;;;14.17;;
1446;SDS011;717;51.522;7.266;2023-02-15T03:05:57;17.77;;;12.80;;
1446;SDS011;717;51.522;7.266;2023-02-15T03:08:31;21.73;;;12.57;;
1446;SDS011;717;51.522;7.266;2023-02-15T03:11:05;18.27;;;12.50;;
1446;SDS011;717;51.522;7.266;2023-02-15T03:13:35;19.47;;;13.00;;
1446;SDS011;717;51.522;7.266;2023-02-15T03:16:04;18.30;;;12.57;;
1446;SDS011;717;51.522;7.266;2023-02-15T03:18:46;20.20;;;13.33;;
1446;SDS011;717;51.522;7.266;2023-02-15T03:21:20;19.10;;;12.73;;
1446;SDS011;717;51.522;7.266;2023-02-15T03:23:53;18.63;;;12.73;;
1446;SDS011;717;51.522;7.266;2023-02-15T03:26:26;19.50;;;13.77;;
1446;SDS011;717;51.522;7.266;2023-02-15T03:28:56;18.97;;;12.53;;
1446;SDS011;717;51.522;7.266;2023-02-15T03:31:30;19.13;;;12.70;;
1446;SDS011;717;51.522;7.266;2023-02-15T03:34:02;18.30;;;12.27;;
1446;SDS011;717;51.522;7.266;2023-02-15T03:36:36;21.60;;;14.10;;
1446;SDS011;717;51.522;7.266;2023-02-15T03:39:13;20.60;;;12.20;;
1446;SDS011;717;51.522;7.266;2023-02-15T03:41:49;18.60;;;11.97;;
1446;SDS011;717;51.522;7.266;2023-02-15T03:44:25;19.27;;;12.03;;
1446;SDS011;717;51.522;7.266;2023-02-15T03:46:59;18.37;;;12.40;;
1446;SDS011;717;51.522;7.266;2023-02-15T03:49:35;15.90;;;11.23;;
1446;SDS011;717;51.522;7.266;2023-02-15T03:52:09;18.30;;;12.70;;
1446;SDS011;717;51.522;7.266;2023-02-15T03:54:38;17.40;;;12.57;;
1446;SDS011;717;51.522;7.266;2023-02-15T03:57:13;18.37;;;12.67;;
1446;SDS011;717;51.522;7.266;2023-02-15T03:59:57;21.30;;;13.03;;
1446;SDS011;717;51.522;7.266;2023-02-15T04:02:39;20.23;;;12.03;;
1446;SDS011;717;51.522;7.266;2023-02-15T04:05:16;20.47;;;12.47;;
1446;SDS011;717;51.522;7.266;2023-02-15T04:07:47;18.60;;;12.83;;
1446;SDS011;717;51.522;7.266;2023-02-15T04:10:16;20.10;;;12.93;;
1446;SDS011;717;51.522;7.266;2023-02-15T04:12:57;19.63;;;12.70;;
1446;SDS011;717;51.522;7.266;2023-02-15T04:15:26;18.57;;;12.80;;
1446;SDS011;717;51.522;7.266;2023-02-15T04:18:07;17.80;;;12.53;;
1446;SDS011;717;51.522;7.266;2023-02-15T04:20:36;17.07;;;12.27;;
1446;SDS011;717;51.522;7.266;2023-02-15T04:23:19;19.37;;;12.23;;
1446;SDS011;717;51.522;7.266;2023-02-15T04:26:02;19.27;;;12.63;;
1446;SDS011;717;51.522;7.266;2023-02-15T04:28:31;20.20;;;12.70;;
1446;SDS011;717;51.522;7.266;2023-02-15T04:30:59;17.80;;;11.87;;
1446;SDS011;717;51.522;7.266;2023-02-15T04:33:28;21.87;;;13.03;;
1446;SDS011;717;51.522;7.266;2023-02-15T04:35:57;18.93;;;12.77;;
1446;SDS011;717;51.522;7.266;2023-02-15T04:38:28;17.17;;;12.47;;
1446;SDS011;717;51.522;7.266;2023-02-15T04:40:56;18.73;;;13.50;;
1446;SDS011;717;51.522;7.266;2023-02-15T04:43:25;21.37;;;12.57;;
1446;SDS011;717;51.522;7.266;2023-02-15T04:45:54;19.23;;;12.47;;
1446;SDS011;717;51.522;7.266;2023-02-15T04:48:23;19.73;;;12.60;;
1446;SDS011;717;51.522;7.266;2023-02-15T04:50:52;18.97;;;13.03;;
1446;SDS011;717;51.522;7.266;2023-02-15T04:53:21;20.17;;;13.23;;
1446;SDS011;717;51.522;7.266;2023-02-15T04:55:52;20.53;;;13.93;;
1446;SDS011;717;51.522;7.266;2023-02-15T04:58:21;20.77;;;13.13;;
1446;SDS011;717;51.522;7.266;2023-02-15T05:00:49;19.97;;;13.27;;
1446;SDS011;717;51.522;7.266;2023-02-15T05:03:18;17.77;;;12.00;;
1446;SDS011;717;51.522;7.266;2023-02-15T05:05:46;19.57;;;12.53;;
1446;SDS011;717;51.522;7.266;2023-02-15T05:08:15;24.83;;;13.63;;
1446;SDS011;717;51.522;7.266;2023-02-15T05:10:44;20.07;;;13.10;;
1446;SDS011;717;51.522;7.266;2023-02-15T05:13:17;20.77;;;12.90;;
1446;SDS011;717;51.522;7.266;2023-02-15T05:15:47;21.67;;;13.40;;
1446;SDS011;717;51.522;7.266;2023-02-15T05:18:17;20.97;;;13.57;;
1446;SDS011;717;51.522;7.266;2023-02-15T05:20:46;19.07;;;12.73;;
1446;SDS011;717;51.522;7.266;2023-02-15T05:23:15;19.07;;;12.87;;
1446;SDS011;717;51.522;7.266;2023-02-15T05:25:46;20.90;;;12.90;;
1446;SDS011;717;51.522;7.266;2023-02-15T05:28:45;21.77;;;13.37;;
1446;SDS011;717;51.522;7.266;2023-02-15T05:31:14;19.47;;;12.90;;
1446;SDS011;717;51.522;7.266;2023-02-15T05:33:44;22.13;;;13.97;;
1446;SDS011;717;51.522;7.266;2023-02-15T05:36:13;21.00;;;13.97;;
1446;SDS011;717;51.522;7.266;2023-02-15T05:38:42;21.47;;;13.57;;
1446;SDS011;717;51.522;7.266;2023-02-15T05:41:11;20.80;;;14.17;;
1446;SDS011;717;51.522;7.266;2023-02-15T05:43:39;22.97;;;14.47;;
1446;SDS011;717;51.522;7.266;2023-02-15T05:46:11;20.57;;;13.53;;
1446;SDS011;717;51.522;7.266;2023-02-15T05:48:40;22.87;;;13.83;;
1446;SDS011;717;51.522;7.266;2023-02-15T05:51:09;19.43;;;12.97;;
1446;SDS011;717;51.522;7.266;2023-02-15T05:53:41;25.97;;;15.33;;
1446;SDS011;717;51.522;7.266;2023-02-15T05:56:10;21.33;;;13.73;;
1446;SDS011;717;51.522;7.266;2023-02-15T05:58:40;22.30;;;14.10;;
1446;SDS011;717;51.522;7.266;2023-02-15T06:01:12;22.13;;;14.07;;
1446;SDS011;717;51.522;7.266;2023-02-15T06:03:43;22.47;;;13.70;;
1446;SDS011;717;51.522;7.266;2023-02-15T06:06:11;23.13;;;14.63;;
1446;SDS011;717;51.522;7.266;2023-02-15T06:08:40;21.17;;;14.13;;
1446;SDS011;717;51.522;7.266;2023-02-15T06:11:09;23.10;;;14.00;;
1446;SDS011;717;51.522;7.266;2023-02-15T06:13:38;22.90;;;14.40;;
1446;SDS011;717;51.522;7.266;2023-02-15T06:16:07;22.77;;;15.00;;
1446;SDS011;717;51.522;7.266;2023-02-15T06:18:38;20.70;;;13.80;;
1446;SDS011;717;51.522;7.266;2023-02-15T06:21:06;22.03;;;14.13;;
1446;SDS011;717;51.522;7.266;2023-02-15T06:23:35;24.27;;;14.83;;
1446;SDS011;717;51.522;7.266;2023-02-15T06:26:04;21.07;;;14.33;;
1446;SDS011;717;51.522;7.266;2023-02-15T06:28:32;22.10;;;14.30;;
1446;SDS011;717;51.522;7.266;2023-02-15T06:31:02;21.80;;;14.73;;
1446;SDS011;717;51.522;7.266;2023-02-15T06:33:31;23.60;;;14.33;;
1446;SDS011;717;51.522;7.266;2023-02-15T06:36:02;21.27;;;14.27;;
1446;SDS011;717;51.522;7.266;2023-02-15T06:38:31;22.80;;;14.40;;
1446;SDS011;717;51.522;7.266;2023-02-15T06:41:00;24.33;;;14.67;;
1446;SDS011;717;51.522;7.266;2023-02-15T06:43:29;23.67;;;14.97;;
1446;SDS011;717;51.522;7.266;2023-02-15T06:45:58;21.17;;;14.13;;
1446;SDS011;717;51.522;7.266;2023-02-15T06:48:27;22.30;;;14.70;;
1446;SDS011;717;51.522;7.266;2023-02-15T06:50:56;22.73;;;14.80;;
1446;SDS011;717;51.522;7.266;2023-02-15T06:53:27;25.23;;;15.33;;
1446;SDS011;717;51.522;7.266;2023-02-15T06:56:00;24.07;;;14.83;;
1446;SDS011;717;51.522;7.266;2023-02-15T06:58:31;21.53;;;13.97;;
1446;SDS011;717;51.522;7.266;2023-02-15T07:01:00;23.17;;;14.90;;
1446;SDS011;717;51.522;7.266;2023-02-15T07:03:29;20.53;;;13.00;;
1446;SDS011;717;51.522;7.266;2023-02-15T07:05:58;23.70;;;14.77;;
1446;SDS011;717;51.522;7.266;2023-02-15T07:08:30;24.67;;;13.93;;
1446;SDS011;717;51.522;7.266;2023-02-15T07:10:59;22.70;;;13.37;;
1446;SDS011;717;51.522;7.266;2023-02-15T07:13:40;27.90;;;14.50;;
1446;SDS011;717;51.522;7.266;2023-02-15T07:16:09;22.37;;;14.00;;
1446;SDS011;717;51.522;7.266;2023-02-15T07:18:38;20.83;;;13.50;;
1446;SDS011;717;51.522;7.266;2023-02-15T07:21:07;21.33;;;14.47;;
1446;SDS011;717;51.522;7.266;2023-02-15T07:23:39;24.63;;;15.97;;
1446;SDS011;717;51.522;7.266;2023-02-15T07:26:07;18.97;;;13.20;;
1446;SDS011;717;51.522;7.266;2023-02-15T07:28:36;21.53;;;14.67;;
1446;SDS011;717;51.522;7.266;2023-02-15T07:31:05;21.27;;;13.83;;
1446;SDS011;717;51.522;7.266;2023-02-15T07:33:34;21.73;;;13.43;;
1446;SDS011;717;51.522;7.266;2023-02-15T07:36:03;21.33;;;13.40;;
1446;SDS011;717;51.522;7.266;2023-02-15T07:38:35;22.17;;;14.17;;
1446;SDS011;717;51.522;7.266;2023-02-15T07:41:07;21.03;;;13.73;;
1446;SDS011;717;51.522;7.266;2023-02-15T07:43:38;21.20;;;13.00;;
1446;SDS011;717;51.522;7.266;2023-02-15T07:46:08;19.97;;;13.13;;
1446;SDS011;717;51.522;7.266;2023-02-15T07:48:38;22.80;;;14.20;;
1446;SDS011;717;51.522;7.266;2023-02-15T07:51:08;22.37;;;14.07;;
1446;SDS011;717;51.522;7.266;2023-02-15T07:53:39;25.07;;;14.13;;
1446;SDS011;717;51.522;7.266;2023-02-15T07:56:12;20.83;;;14.17;;
1446;SDS011;717;51.522;7.266;2023-02-15T07:58:41;20.57;;;12.70;;
1446;SDS011;717;51.522;7.266;2023-02-15T08:01:21;21.57;;;14.10;;
1446;SDS011;717;51.522;7.266;2023-02-15T08:03:51;22.53;;;14.93;;
1446;SDS011;717;51.522;7.266;2023-02-15T08:06:21;24.77;;;15.23;;
1446;SDS011;717;51.522;7.266;2023-02-15T08:08:50;22.47;;;13.50;;
1446;SDS011;717;51.522;7.266;2023-02-15T08:11:21;22.50;;;13.30;;
1446;SDS011;717;51.522;7.266;2023-02-15T08:13:54;24.80;;;15.27;;
1446;SDS011;717;51.522;7.266;2023-02-15T08:16:31;19.00;;;13.30;;
1446;SDS011;717;51.522;7.266;2023-02-15T08:19:02;23.17;;;14.33;;
1446;SDS011;717;51.522;7.266;2023-02-15T08:21:32;22.87;;;14.00;;
1446;SDS011;717;51.522;7.266;2023-02-15T08:24:02;20.80;;;13.57;;
1446;SDS011;717;51.522;7.266;2023-02-15T08:26:35;24.30;;;13.83;;
1446;SDS011;717;51.522;7.266;2023-02-15T08:29:04;22.27;;;14.33;;
1446;SDS011;717;51.522;7.266;2023-02-15T08:31:34;19.77;;;13.53;;
1446;SDS011;717;51.522;7.266;2023-02-15T08:34:03;24.57;;;14.23;;
1446;SDS011;717;51.522;7.266;2023-02-15T08:36:32;22.17;;;14.33;;
1446;SDS011;717;51.522;7.266;2023-02-15T08:39:02;18.03;;;12.87;;
1446;SDS011;717;51.522;7.266;2023-02-15T08:41:35;20.30;;;13.13;;
1446;SDS011;717;51.522;7.266;2023-02-15T08:44:06;17.83;;;12.57;;
1446;SDS011;717;51.522;7.266;2023-02-15T08:46:36;21.10;;;12.90;;
1446;SDS011;717;51.522;7.266;2023-02-15T08:49:06;20.33;;;12.90;;
1446;SDS011;717;51.522;7.266;2023-02-15T08:51:36;21.70;;;12.53;;
1446;SDS011;717;51.522;7.266;2023-02-15T08:54:07;19.83;;;12.97;;
1446;SDS011;717;51.522;7.266;2023-02-15T08:56:41;21.00;;;12.90;;
1446;SDS011;717;51.522;7.266;2023-02-15T08:59:12;18.63;;;12.20;;
1446;SDS011;717;51.522;7.266;2023-02-15T09:01:42;18.27;;;12.23;;
1446;SDS011;717;51.522;7.266;2023-02-15T09:04:11;19.30;;;12.80;;
1446;SDS011;717;51.522;7.266;2023-02-15T09:06:41;20.87;;;12.43;;
1446;SDS011;717;51.522;7.266;2023-02-15T09:09:11;19.93;;;11.90;;
1446;SDS011;717;51.522;7.266;2023-02-15T09:11:43;18.50;;;11.13;;
1446;SDS011;717;51.522;7.266;2023-02-15T09:14:14;19.07;;;12.40;;
1446;SDS011;717;51.522;7.266;2023-02-15T09:16:45;18.57;;;11.93;;
1446;SDS011;717;51.522;7.266;2023-02-15T09:19:17;18.47;;;11.70;;
1446;SDS011;717;51.522;7.266;2023-02-15T09:21:46;19.13;;;13.13;;
1446;SDS011;717;51.522;7.266;2023-02-15T09:24:15;19.87;;;11.73;;
1446;SDS011;717;51.522;7.266;2023-02-15T09:26:48;19.35;;;11.55;;
1446;SDS011;717;51.522;7.266;2023-02-15T09:29:18;17.63;;;11.13;;
1446;SDS011;717;51.522;7.266;2023-02-15T09:31:48;19.40;;;12.30;;
1446;SDS011;717;51.522;7.266;2023-02-15T09:34:20;19.47;;;12.43;;
1446;SDS011;717;51.522;7.266;2023-02-15T09:36:50;22.00;;;11.38;;
1446;SDS011;717;51.522;7.266;2023-02-15T09:39:19;20.77;;;11.70;;
1446;SDS011;717;51.522;7.266;2023-02-15T09:48:14;18.63;;;10.13;;
1446;SDS011;717;51.522;7.266;2023-02-15T09:50:55;17.93;;;11.83;;
1446;SDS011;717;51.522;7.266;2023-02-15T09:53:40;18.93;;;11.40;;
1446;SDS011;717;51.522;7.266;2023-02-15T09:56:28;17.20;;;11.23;;
1446;SDS011;717;51.522;7.266;2023-02-15T09:59:04;17.40;;;11.67;;
1446;SDS011;717;51.522;7.266;2023-02-15T10:01:39;18.03;;;10.50;;
1446;SDS011;717;51.522;7.266;2023-02-15T10:04:24;19.10;;;12.17;;
1446;SDS011;717;51.522;7.266;2023-02-15T10:07:05;15.37;;;10.70;;
1446;SDS011;717;51.522;7.266;2023-02-15T10:09:46;17.87;;;10.97;;
1446;SDS011;717;51.522;7.266;2023-02-15T10:12:33;20.23;;;11.63;;
1446;SDS011;717;51.522;7.266;2023-02-15T10:15:20;18.10;;;11.30;;
1446;SDS011;717;51.522;7.266;2023-02-15T10:18:00;18.10;;;11.73;;
1446;SDS011;717;51.522;7.266;2023-02-15T10:20:43;19.60;;;11.13;;
1446;SDS011;717;51.522;7.266;2023-02-15T10:23:27;16.60;;;10.18;;
1446;SDS011;717;51.522;7.266;2023-02-15T10:26:11;18.10;;;9.57;;
1446;SDS011;717;51.522;7.266;2023-02-15T10:28:46;17.00;;;10.30;;
1446;SDS011;717;51.522;7.266;2023-02-15T10:31:22;15.93;;;11.32;;
1446;SDS011;717;51.522;7.266;2023-02-15T10:34:00;18.65;;;12.90;;
1446;SDS011;717;51.522;7.266;2023-02-15T10:36:58;21.35;;;14.18;;
1446;SDS011;717;51.522;7.266;2023-02-15T10:39:51;22.95;;;13.73;;
1446;SDS011;717;51.522;7.266;2023-02-15T10:42:30;22.67;;;14.63;;
1446;SDS011;717;51.522;7.266;2023-02-15T10:45:12;22.35;;;14.35;;
1446;SDS011;717;51.522;7.266;2023-02-15T10:47:55;21.23;;;13.18;;
1446;SDS011;717;51.522;7.266;2023-02-15T10:50:40;19.48;;;12.85;;
1446;SDS011;717;51.522;7.266;2023-02-15T10:56:24;18.45;;;11.60;;
1446;SDS011;717;51.522;7.266;2023-02-15T10:59:03;18.45;;;11.48;;
1446;SDS011;717;51.522;7.266;2023-02-15T11:01:44;16.33;;;9.95;;
1446;SDS011;717;51.522;7.266;2023-02-15T11:07:18;16.63;;;10.57;;
1446;SDS011;717;51.522;7.266;2023-02-15T11:09:54;16.05;;;9.52;;
1446;SDS011;717;51.522;7.266;2023-02-15T11:12:28;16.05;;;10.75;;
1446;SDS011;717;51.522;7.266;2023-02-15T11:15:00;15.82;;;10.13;;
1446;SDS011;717;51.522;7.266;2023-02-15T11:17:35;13.25;;;9.82;;
1446;SDS011;717;51.522;7.266;2023-02-15T11:20:08;15.60;;;9.55;;
1446;SDS011;717;51.522;7.266;2023-02-15T11:22:46;15.23;;;9.05;;
1446;SDS011;717;51.522;7.266;2023-02-15T11:25:22;14.02;;;9.15;;
1446;SDS011;717;51.522;7.266;2023-02-15T11:27:52;14.15;;;8.60;;
1446;SDS011;717;51.522;7.266;2023-02-15T11:30:24;13.35;;;9.02;;
1446;SDS011;717;51.522;7.266;2023-02-15T11:32:55;13.88;;;8.30;;
1446;SDS011;717;51.522;7.266;2023-02-15T11:35:27;11.32;;;8.60;;
1446;SDS011;717;51.522;7.266;2023-02-15T11:38:01;12.70;;;8.27;;
1446;SDS011;717;51.522;7.266;2023-02-15T11:40:40;12.55;;;8.50;;
1446;SDS011;717;51.522;7.266;2023-02-15T11:43:16;14.82;;;8.05;;
1446;SDS011;717;51.522;7.266;2023-02-15T11:45:49;13.23;;;8.25;;
1446;SDS011;717;51.522;7.266;2023-02-15T11:48:19;12.85;;;8.30;;
1446;SDS011;717;51.522;7.266;2023-02-15T11:50:48;12.82;;;8.40;;
1446;SDS011;717;51.522;7.266;2023-02-15T11:53:17;13.13;;;8.23;;
1446;SDS011;717;51.522;7.266;2023-02-15T11:55:53;11.55;;;8.18;;
1446;SDS011;717;51.522;7.266;2023-02-15T11:58:25;11.25;;;7.07;;
1446;SDS011;717;51.522;7.266;2023-02-15T12:01:00;12.25;;;7.90;;
1446;SDS011;717;51.522;7.266;2023-02-15T12:03:39;10.65;;;7.63;;
1446;SDS011;717;51.522;7.266;2023-02-15T12:06:18;13.30;;;8.68;;
1446;SDS011;717;51.522;7.266;2023-02-15T12:08:54;11.27;;;7.20;;
1446;SDS011;717;51.522;7.266;2023-02-15T12:11:36;11.27;;;6.28;;
1446;SDS011;717;51.522;7.266;2023-02-15T12:14:06;9.93;;;6.40;;
1446;SDS011;717;51.522;7.266;2023-02-15T12:16:40;10.65;;;6.65;;
1446;SDS011;717;51.522;7.266;2023-02-15T12:19:13;11.30;;;6.32;;
1446;SDS011;717;51.522;7.266;2023-02-15T12:21:52;8.73;;;6.05;;
1446;SDS011;717;51.522;7.266;2023-02-15T12:24:22;10.57;;;6.20;;
1446;SDS011;717;51.522;7.266;2023-02-15T12:26:59;9.05;;;6.13;;
1446;SDS011;717;51.522;7.266;2023-02-15T12:29:31;11.40;;;6.68;;
1446;SDS011;717;51.522;7.266;2023-02-15T12:32:09;10.13;;;6.40;;
1446;SDS011;717;51.522;7.266;2023-02-15T12:34:44;10.13;;;6.35;;
1446;SDS011;717;51.522;7.266;2023-02-15T12:37:17;11.48;;;6.70;;
1446;SDS011;717;51.522;7.266;2023-02-15T12:39:52;11.18;;;6.47;;
1446;SDS011;717;51.522;7.266;2023-02-15T12:42:25;10.38;;;6.75;;
1446;SDS011;717;51.522;7.266;2023-02-15T12:44:56;10.43;;;6.57;;
1446;SDS011;717;51.522;7.266;2023-02-15T12:47:27;9.23;;;6.60;;
1446;SDS011;717;51.522;7.266;2023-02-15T12:50:04;9.63;;;6.75;;
1446;SDS011;717;51.522;7.266;2023-02-15T12:52:41;10.20;;;6.57;;
1446;SDS011;717;51.522;7.266;2023-02-15T12:55:11;10.77;;;6.55;;
1446;SDS011;717;51.522;7.266;2023-02-15T12:57:50;9.85;;;6.50;;
1446;SDS011;717;51.522;7.266;2023-02-15T13:00:33;8.75;;;5.68;;
1446;SDS011;717;51.522;7.266;2023-02-15T13:03:02;9.32;;;6.38;;
1446;SDS011;717;51.522;7.266;2023-02-15T13:05:32;9.70;;;6.43;;
1446;SDS011;717;51.522;7.266;2023-02-15T13:08:08;11.05;;;6.70;;
1446;SDS011;717;51.522;7.266;2023-02-15T13:10:40;9.63;;;6.65;;
1446;SDS011;717;51.522;7.266;2023-02-15T13:13:16;10.50;;;6.35;;
1446;SDS011;717;51.522;7.266;2023-02-15T13:15:49;10.13;;;6.75;;
1446;SDS011;717;51.522;7.266;2023-02-15T13:18:25;10.30;;;6.55;;
1446;SDS011;717;51.522;7.266;2023-02-15T13:21:00;10.18;;;6.97;;
1446;SDS011;717;51.522;7.266;2023-02-15T13:23:37;10.75;;;7.03;;
1446;SDS011;717;51.522;7.266;2023-02-15T13:26:08;12.55;;;7.15;;
1446;SDS011;717;51.522;7.266;2023-02-15T13:28:44;11.77;;;7.60;;
1446;SDS011;717;51.522;7.266;2023-02-15T13:31:15;13.50;;;7.45;;
1446;SDS011;717;51.522;7.266;2023-02-15T13:33:46;12.05;;;7.13;;
1446;SDS011;717;51.522;7.266;2023-02-15T13:36:21;14.48;;;7.63;;
1446;SDS011;717;51.522;7.266;2023-02-15T13:39:01;11.18;;;7.30;;
1446;SDS011;717;51.522;7.266;2023-02-15T13:41:43;12.40;;;7.63;;
1446;SDS011;717;51.522;7.266;2023-02-15T13:44:33;11.27;;;7.40;;
1446;SDS011;717;51.522;7.266;2023-02-15T13:47:18;10.02;;;6.53;;
1446;SDS011;717;51.522;7.266;2023-02-15T13:49:56;11.57;;;7.80;;
1446;SDS011;717;51.522;7.266;2023-02-15T13:52:35;10.93;;;7.03;;
1446;SDS011;717;51.522;7.266;2023-02-15T13:58:14;11.88;;;8.00;;
1446;SDS011;717;51.522;7.266;2023-02-15T14:01:00;14.10;;;7.72;;
1446;SDS011;717;51.522;7.266;2023-02-15T14:09:24;11.23;;;7.70;;
1446;SDS011;717;51.522;7.266;2023-02-15T14:12:06;11.20;;;7.90;;
1446;SDS011;717;51.522;7.266;2023-02-15T14:14:57;13.43;;;8.00;;
1446;SDS011;717;51.522;7.266;2023-02-15T14:17:43;12.48;;;8.13;;
1446;SDS011;717;51.522;7.266;2023-02-15T14:20:20;11.77;;;8.15;;
1446;SDS011;717;51.522;7.266;2023-02-15T14:22:54;13.43;;;8.75;;
1446;SDS011;717;51.522;7.266;2023-02-15T14:25:32;12.65;;;8.43;;
1446;SDS011;717;51.522;7.266;2023-02-15T14:28:07;12.52;;;8.48;;
1446;SDS011;717;51.522;7.266;2023-02-15T14:30:40;13.00;;;8.23;;
1446;SDS011;717;51.522;7.266;2023-02-15T14:33:23;11.90;;;8.10;;
1446;SDS011;717;51.522;7.266;2023-02-15T14:35:58;11.50;;;8.55;;
1446;SDS011;717;51.522;7.266;2023-02-15T14:38:33;11.27;;;7.90;;
1446;SDS011;717;51.522;7.266;2023-02-15T14:41:12;13.38;;;8.70;;
1446;SDS011;717;51.522;7.266;2023-02-15T14:43:45;13.50;;;8.20;;
1446;SDS011;717;51.522;7.266;2023-02-15T14:46:21;12.98;;;8.52;;
1446;SDS011;717;51.522;7.266;2023-02-15T14:49:04;12.60;;;8.13;;
1446;SDS011;717;51.522;7.266;2023-02-15T14:57:24;13.48;;;8.27;;
1446;SDS011;717;51.522;7.266;2023-02-15T14:59:57;13.45;;;8.30;;
1446;SDS011;717;51.522;7.266;2023-02-15T15:02:40;13.07;;;7.97;;
1446;SDS011;717;51.522;7.266;2023-02-15T15:05:17;13.77;;;8.10;;
1446;SDS011;717;51.522;7.266;2023-02-15T15:07:48;11.52;;;7.63;;
1446;SDS011;717;51.522;7.266;2023-02-15T15:18:57;11.80;;;7.93;;
1446;SDS011;717;51.522;7.266;2023-02-15T15:33:36;11.40;;;8.05;;
1446;SDS011;717;51.522;7.266;2023-02-15T15:36:49;11.38;;;7.95;;
1446;SDS011;717;51.522;7.266;2023-02-15T15:42:45;12.32;;;8.10;;
1446;SDS011;717;51.522;7.266;2023-02-15T15:45:23;13.48;;;8.43;;
1446;SDS011;717;51.522;7.266;2023-02-15T15:48:19;11.65;;;8.05;;
1446;SDS011;717;51.522;7.266;2023-02-15T15:51:03;12.63;;;7.85;;
1446;SDS011;717;51.522;7.266;2023-02-15T15:53:42;10.43;;;7.50;;
1446;SDS011;717;51.522;7.266;2023-02-15T15:56:16;12.88;;;8.15;;
1446;SDS011;717;51.522;7.266;2023-02-15T15:58:48;11.40;;;7.70;;
1446;SDS011;717;51.522;7.266;2023-02-15T16:01:24;13.25;;;7.70;;
1446;SDS011;717;51.522;7.266;2023-02-15T16:03:55;9.60;;;7.38;;
1446;SDS011;717;51.522;7.266;2023-02-15T16:06:32;11.75;;;7.63;;
1446;SDS011;717;51.522;7.266;2023-02-15T16:09:13;12.77;;;7.40;;
1446;SDS011;717;51.522;7.266;2023-02-15T16:11:45;11.35;;;7.75;;
1446;SDS011;717;51.522;7.266;2023-02-15T16:14:16;12.15;;;7.00;;
1446;SDS011;717;51.522;7.266;2023-02-15T16:16:50;9.73;;;7.00;;
1446;SDS011;717;51.522;7.266;2023-02-15T16:19:22;11.15;;;7.82;;
1446;SDS011;717;51.522;7.266;2023-02-15T16:21:53;10.48;;;7.18;;
1446;SDS011;717;51.522;7.266;2023-02-15T16:24:28;10.98;;;7.10;;
1446;SDS011;717;51.522;7.266;2023-02-15T16:27:26;12.90;;;7.97;;
1446;SDS011;717;51.522;7.266;2023-02-15T16:30:17;12.23;;;7.63;;
1446;SDS011;717;51.522;7.266;2023-02-15T16:32:48;12.75;;;7.38;;
1446;SDS011;717;51.522;7.266;2023-02-15T16:35:21;12.68;;;8.00;;